Portada
Imágenes satélite Pronóstico 15 díasClimaPredicción Marítima Ciclones Rayo AeropuertosFAQ Noticias Acerca
El tiempo : Europa África América del Norte América del Sur Asia Australia-Oceanía Otros
Idiomas Contacto

Tarbes Lourdes, Francia

Ossun

latitud: 43-11N, longitud: 000-00W, altitud: 379 m


METAR: LFBT 230500Z AUTO VRB03KT 9999 NSC 12/09 Q1013
TAF: LFBT 230112Z 2301/2324 VRB03KT CAVOK TEMPO 2301/2306 4000 BR

Hora: 06:31 (05:31 UTC)

Observación

El informe se hizo hace 31 minutos, a las 05:00 UTC
Viento 3 kt con dirección variable
Temperatura 12°C
Humedad 82%
Presión 1013 hPa
Visibilidad 10 km o más

Cambiar las unidades

Pronóstico

El informe se hizo hace 4 horas y 19 minutos, a las 01:12 UTC
Pronóstico válido del 23 a las 01 UTC al 23 a las 24 UTC
Viento 3 kt con dirección variable
Visibilidad 10 km o más
sin nubes por debajo de 1500 m y sin presencia de cumulonimbus.
Temporalmente
del 23 a las 01 UTC al 23 a las 06 UTC
Visibilidad: 4000 m
neblina
La información que se ofrece en estas páginas está sujeta a una cláusula de exención de responsabilidad
El tiempo : Europa África América del Norte América del Sur Asia Australia-Oceanía Otros
Imágenes satélite Pronóstico 15 díasClimaPredicción Marítima Ciclones Rayo AeropuertosFAQ Idiomas Contacto Noticias Acerca